Time;durP1;ratioP1;P1;durP2;ratioP2;P2;SDS_P1;SDS_P2;PMS_P1;PMS_P2;Temp;Humidity;BMP_temperature;BMP_pressure;BME280_temperature;BME280_humidity;BME280_pressure;Samples;Min_cycle;Max_cycle;Signal;HPM_P1;HPM_P2
2022/03/05 00:01:00;;;;;;;26.00;11.35;;;;;;;0.83;73.75;101994.06;5024570;28;20197;-86
2022/03/05 00:03:25;;;;;;;22.10;10.43;;;;;;;0.82;74.24;101994.81;5023911;28;20232;-85
2022/03/05 00:05:51;;;;;;;26.00;11.32;;;;;;;0.82;73.94;101994.81;5022097;28;20013;-85
2022/03/05 00:08:16;;;;;;;25.48;11.27;;;;;;;0.82;74.57;101989.69;5024932;28;20052;-85
2022/03/05 00:10:42;;;;;;;27.63;10.88;;;;;;;0.83;74.65;101987.25;5027265;28;20264;-85
2022/03/05 00:13:08;;;;;;;25.55;11.23;;;;;;;0.81;74.75;101995.59;5027547;28;20370;-85
2022/03/05 00:15:33;;;;;;;29.88;12.00;;;;;;;0.78;74.31;101996.25;5020870;28;20107;-85
2022/03/05 00:17:59;;;;;;;25.02;10.70;;;;;;;0.74;74.38;101996.78;5026500;28;20038;-87
2022/03/05 00:20:24;;;;;;;26.80;11.05;;;;;;;0.73;74.61;101997.53;5030112;28;20060;-85
2022/03/05 00:22:53;;;;;;;24.55;11.63;;;;;;;0.73;74.01;102004.34;5022418;28;20014;-85
2022/03/05 00:25:24;;;;;;;27.52;11.75;;;;;;;0.71;74.67;102001.66;5031274;28;20021;-84
2022/03/05 00:27:50;;;;;;;29.67;12.13;;;;;;;0.71;74.48;102008.44;5025070;28;20212;-81
2022/03/05 00:30:16;;;;;;;25.80;11.60;;;;;;;0.66;73.86;102008.94;5021304;28;20025;-81
2022/03/05 00:32:42;;;;;;;27.63;10.75;;;;;;;0.63;74.27;102002.69;5023994;28;20028;-81
2022/03/05 00:35:08;;;;;;;29.23;11.63;;;;;;;0.60;74.50;102002.44;5026909;28;20141;-81
2022/03/05 00:37:33;;;;;;;23.52;10.55;;;;;;;0.55;73.88;102001.16;5031427;28;20032;-81
2022/03/05 00:39:59;;;;;;;28.08;11.82;;;;;;;0.49;74.40;101999.88;5023637;28;20141;-81
2022/03/05 00:42:24;;;;;;;29.58;12.85;;;;;;;0.46;74.06;102003.84;5022463;28;20067;-81
2022/03/05 00:44:50;;;;;;;27.70;12.52;;;;;;;0.41;74.85;102000.91;5026694;28;20010;-81
2022/03/05 00:47:16;;;;;;;29.75;12.10;;;;;;;0.41;75.91;101998.34;5023333;28;20256;-81
2022/03/05 00:49:41;;;;;;;29.50;13.05;;;;;;;0.39;76.19;101991.28;5029969;28;20033;-83
2022/03/05 00:52:06;;;;;;;31.00;12.82;;;;;;;0.38;75.94;101990.41;5031931;28;20037;-81
2022/03/05 00:54:32;;;;;;;29.63;12.05;;;;;;;0.37;76.09;101993.72;5016227;28;20017;-81
2022/03/05 00:56:57;;;;;;;31.27;12.68;;;;;;;0.36;75.81;101993.59;5030305;28;20192;-81
2022/03/05 00:59:22;;;;;;;28.70;12.52;;;;;;;0.33;76.44;101990.03;5028826;28;20021;-81
2022/03/05 01:01:47;;;;;;;32.22;12.95;;;;;;;0.30;76.20;101987.19;5027930;28;20025;-81
2022/03/05 01:04:13;;;;;;;28.55;12.65;;;;;;;0.29;76.34;101994.75;5027265;28;20021;-81
2022/03/05 01:06:38;;;;;;;27.92;12.93;;;;;;;0.27;76.09;101996.28;5026275;28;20013;-81
2022/03/05 01:09:05;;;;;;;33.17;13.82;;;;;;;0.22;75.15;101990.78;5030009;28;20026;-81
2022/03/05 01:11:30;;;;;;;32.42;12.90;;;;;;;0.20;75.09;101991.41;5029315;28;20021;-81
2022/03/05 01:13:56;;;;;;;29.30;12.65;;;;;;;0.16;74.76;101990.28;5027221;28;20048;-81
2022/03/05 01:16:22;;;;;;;31.48;13.30;;;;;;;0.13;75.27;101990.91;5031634;28;20045;-81
2022/03/05 01:18:47;;;;;;;30.70;12.88;;;;;;;0.10;74.78;101990.66;5026599;28;20013;-81
2022/03/05 01:21:13;;;;;;;29.58;12.93;;;;;;;0.07;74.57;101986.94;5026022;28;20029;-81
2022/03/05 01:23:39;;;;;;;33.58;13.75;;;;;;;0.02;74.67;101991.66;5031022;28;20034;-81
2022/03/05 01:26:04;;;;;;;34.33;14.32;;;;;;;-0.05;74.43;101982.56;5030809;28;20133;-81
2022/03/05 01:28:30;;;;;;;29.52;12.98;;;;;;;-0.09;75.24;101987.28;5026917;28;20029;-81
2022/03/05 01:30:55;;;;;;;32.25;13.02;;;;;;;-0.13;74.62;101987.78;5025429;28;20021;-81
2022/03/05 01:33:21;;;;;;;30.00;13.55;;;;;;;-0.20;75.47;101991.53;5024854;28;20017;-81
2022/03/05 01:35:48;;;;;;;30.38;13.05;;;;;;;-0.23;75.09;101989.59;5026343;28;20021;-81
2022/03/05 01:38:14;;;;;;;32.80;13.57;;;;;;;-0.25;74.66;101988.53;5029144;28;20013;-83
2022/03/05 01:40:40;;;;;;;33.20;13.55;;;;;;;-0.26;75.42;101991.88;5026143;28;20024;-83
2022/03/05 01:43:06;;;;;;;34.55;14.00;;;;;;;-0.26;75.54;101984.22;5025373;28;20013;-83
2022/03/05 01:45:31;;;;;;;31.98;14.25;;;;;;;-0.28;75.75;101980.59;5026838;28;20017;-84
2022/03/05 01:47:57;;;;;;;37.35;14.70;;;;;;;-0.31;75.26;101987.13;5025337;28;20335;-83
2022/03/05 01:50:23;;;;;;;32.13;14.13;;;;;;;-0.34;75.64;101981.75;5025494;28;20141;-83
2022/03/05 01:52:48;;;;;;;32.78;14.35;;;;;;;-0.39;76.09;101994.13;5018356;28;20050;-83
2022/03/05 01:55:14;;;;;;;35.22;14.35;;;;;;;-0.43;75.64;101981.88;5025368;28;20022;-86
2022/03/05 01:57:39;;;;;;;36.17;13.98;;;;;;;-0.45;75.29;101983.38;5025623;28;20021;-84
2022/03/05 02:00:09;;;;;;;35.58;14.35;;;;;;;-0.47;75.68;101980.69;5024486;28;20039;-83
2022/03/05 02:02:34;;;;;;;33.60;14.40;;;;;;;-0.48;75.17;101991.69;5023341;28;20014;-83
2022/03/05 02:05:00;;;;;;;33.75;14.38;;;;;;;-0.50;76.09;101985.53;5028249;28;20021;-83
2022/03/05 02:07:25;;;;;;;37.92;14.57;;;;;;;-0.50;75.19;101984.66;5031169;28;20409;-81
2022/03/05 02:09:51;;;;;;;35.65;14.70;;;;;;;-0.53;75.24;101986.16;5025184;28;20014;-81
2022/03/05 02:12:16;;;;;;;38.58;15.25;;;;;;;-0.55;75.75;101982.59;5026291;28;20157;-81
2022/03/05 02:14:42;;;;;;;36.70;14.80;;;;;;;-0.56;75.68;101985.91;5034003;28;20026;-82
2022/03/05 02:17:07;;;;;;;35.30;14.43;;;;;;;-0.58;75.32;101995.13;5027798;28;20044;-81
2022/03/05 02:19:33;;;;;;;36.28;14.50;;;;;;;-0.60;75.22;101988.97;5026217;28;20168;-81
2022/03/05 02:21:58;;;;;;;36.83;14.82;;;;;;;-0.62;75.54;101985.38;5028433;28;20319;-81
2022/03/05 02:24:32;;;;;;;35.97;14.20;;;;;;;-0.63;76.52;101986.13;5031476;28;20021;-82
2022/03/05 02:27:02;;;;;;;35.15;15.20;;;;;;;-0.63;77.99;101975.91;5027312;28;20216;-81
2022/03/05 02:29:30;;;;;;;33.05;14.02;;;;;;;-0.63;78.23;101978.47;5020923;28;20033;-82
2022/03/05 02:31:55;;;;;;;37.20;14.75;;;;;;;-0.65;79.17;101974.88;5028559;28;20089;-82
2022/03/05 02:34:21;;;;;;;36.45;14.70;;;;;;;-0.63;78.58;101978.47;5026884;28;20025;-82
2022/03/05 02:36:47;;;;;;;35.28;16.50;;;;;;;-0.64;78.74;101974.09;5027487;28;20014;-82
2022/03/05 02:39:12;;;;;;;39.45;16.98;;;;;;;-0.66;78.97;101967.97;5027380;28;20010;-82
2022/03/05 02:41:38;;;;;;;36.53;15.80;;;;;;;-0.66;79.58;101962.84;5023971;28;20045;-82
2022/03/05 02:44:03;;;;;;;37.72;16.17;;;;;;;-0.67;78.71;101968.72;5032976;28;20116;-82
2022/03/05 02:46:29;;;;;;;39.10;16.27;;;;;;;-0.68;79.04;101968.56;5031613;28;20028;-82
2022/03/05 02:48:55;;;;;;;36.42;15.77;;;;;;;-0.72;79.21;101965.75;5024731;28;20164;-81
2022/03/05 02:51:20;;;;;;;35.50;14.98;;;;;;;-0.72;79.21;101967.44;5026299;28;20053;-82
2022/03/05 02:53:46;;;;;;;37.85;15.48;;;;;;;-0.73;78.83;101968.19;5017848;28;20044;-81
2022/03/05 02:56:12;;;;;;;33.50;13.93;;;;;;;-0.75;78.73;101964.63;5029981;28;20030;-82
2022/03/05 02:58:37;;;;;;;39.92;16.67;;;;;;;-0.77;78.61;101961.91;5026824;28;20093;-81
2022/03/05 03:01:02;;;;;;;33.10;14.38;;;;;;;-0.81;78.22;101956.38;5022938;28;20010;-82
2022/03/05 03:03:28;;;;;;;37.15;16.48;;;;;;;-0.85;78.01;101969.66;5028353;28;20018;-82
2022/03/05 03:05:53;;;;;;;38.83;15.85;;;;;;;-0.87;78.10;101969.53;5024966;28;20390;-82
2022/03/05 03:08:18;;;;;;;35.60;14.63;;;;;;;-0.87;77.83;101974.66;5033471;28;20011;-82
2022/03/05 03:10:44;;;;;;;36.42;14.57;;;;;;;-0.87;77.84;101977.19;5023666;28;20088;-82
2022/03/05 03:13:09;;;;;;;38.65;15.80;;;;;;;-0.89;77.54;101982.19;5030295;28;20032;-82
2022/03/05 03:15:34;;;;;;;38.05;15.27;;;;;;;-0.91;77.16;101972.59;5026642;28;20022;-82
2022/03/05 03:18:00;;;;;;;36.20;14.68;;;;;;;-0.94;77.38;101979.97;5026230;28;20379;-81
2022/03/05 03:20:27;;;;;;;33.58;14.18;;;;;;;-0.99;77.38;101971.91;5029029;28;20139;-82
2022/03/05 03:22:53;;;;;;;35.45;15.00;;;;;;;-1.01;77.66;101963.22;5028260;28;20060;-82
2022/03/05 03:25:19;;;;;;;34.53;14.52;;;;;;;-1.02;77.02;101961.41;5031894;28;20044;-82
2022/03/05 03:27:44;;;;;;;36.45;15.35;;;;;;;-1.04;77.56;101973.19;5029606;28;20211;-82
2022/03/05 03:30:12;;;;;;;38.83;14.93;;;;;;;-1.07;77.50;101963.56;5021663;28;20089;-82
2022/03/05 03:32:38;;;;;;;39.08;15.88;;;;;;;-1.11;77.67;101958.06;5027710;28;20021;-81
2022/03/05 03:35:05;;;;;;;31.88;14.18;;;;;;;-1.13;77.35;101962.13;5026083;28;20093;-81
2022/03/05 03:37:31;;;;;;;37.00;15.25;;;;;;;-1.16;77.53;101972.06;5022496;28;20018;-82
2022/03/05 03:39:57;;;;;;;36.33;15.40;;;;;;;-1.17;77.72;101960.03;5023528;28;20010;-82
2022/03/05 03:42:23;;;;;;;40.45;15.00;;;;;;;-1.19;78.18;101962.47;5029192;28;20021;-82
2022/03/05 03:44:49;;;;;;;34.58;14.45;;;;;;;-1.21;77.94;101958.00;5024957;28;20014;-82
2022/03/05 03:47:14;;;;;;;37.10;15.25;;;;;;;-1.26;78.21;101961.03;5026379;28;20013;-82
2022/03/05 03:49:39;;;;;;;33.08;15.10;;;;;;;-1.27;77.89;101963.47;5025928;28;20022;-82
2022/03/05 03:52:05;;;;;;;37.35;14.07;;;;;;;-1.28;77.66;101967.66;5021256;28;20026;-82
2022/03/05 03:54:30;;;;;;;37.78;15.23;;;;;;;-1.31;77.65;101967.38;5023758;28;20326;-82
2022/03/05 03:56:55;;;;;;;37.05;14.10;;;;;;;-1.32;77.71;101967.25;5022831;28;20271;-82
2022/03/05 03:59:21;;;;;;;36.08;14.77;;;;;;;-1.35;77.92;101970.44;5022398;28;20265;-82
2022/03/05 04:01:46;;;;;;;37.13;15.02;;;;;;;-1.38;78.03;101966.72;5021634;28;20256;-82
2022/03/05 04:04:12;;;;;;;32.20;13.75;;;;;;;-1.41;77.79;101962.22;5023829;28;20248;-82
2022/03/05 04:09:21;;;;;;;35.20;14.52;;;;;;;-1.43;77.90;101967.19;5022631;28;20009;-82
2022/03/05 04:11:46;;;;;;;35.58;14.70;;;;;;;-1.44;77.60;101959.38;5023177;28;20036;-83
2022/03/05 04:14:12;;;;;;;39.25;15.52;;;;;;;-1.44;77.82;101964.50;5028165;28;20268;-83
2022/03/05 04:16:37;;;;;;;37.25;15.32;;;;;;;-1.45;78.62;101967.81;5022109;28;20033;-82
2022/03/05 04:19:02;;;;;;;36.28;15.23;;;;;;;-1.48;78.01;101962.41;5022623;28;20022;-82
2022/03/05 04:21:27;;;;;;;33.00;14.02;;;;;;;-1.51;78.04;101969.81;5023652;28;20042;-82
2022/03/05 04:23:53;;;;;;;34.03;15.00;;;;;;;-1.53;77.64;101967.13;5018218;28;20021;-82
2022/03/05 04:26:18;;;;;;;36.58;14.73;;;;;;;-1.53;78.20;101968.78;5029151;28;20168;-82
2022/03/05 04:28:44;;;;;;;36.13;15.00;;;;;;;-1.55;78.13;101975.41;5020140;28;20053;-83
2022/03/05 04:31:09;;;;;;;32.67;14.60;;;;;;;-1.58;78.26;101970.91;5022049;28;20017;-82
2022/03/05 04:33:34;;;;;;;37.72;14.88;;;;;;;-1.60;78.29;101972.44;5025046;28;20248;-82
2022/03/05 04:36:00;;;;;;;33.92;13.68;;;;;;;-1.60;79.04;101978.44;5027310;28;20010;-81
2022/03/05 04:38:25;;;;;;;36.72;15.57;;;;;;;-1.62;78.21;101987.63;5021826;28;20097;-83
2022/03/05 04:40:51;;;;;;;34.13;13.93;;;;;;;-1.67;78.04;101976.09;5030267;28;20020;-84
2022/03/05 04:43:16;;;;;;;38.03;15.35;;;;;;;-1.67;78.60;101976.09;5028243;28;20010;-82
2022/03/05 04:45:41;;;;;;;36.72;15.35;;;;;;;-1.64;78.91;101975.47;5022378;28;20093;-82
2022/03/05 04:48:07;;;;;;;37.45;14.93;;;;;;;-1.66;78.37;101983.00;5023218;28;20278;-81
2022/03/05 04:50:32;;;;;;;37.45;15.13;;;;;;;-1.68;78.52;101981.97;5023130;28;20017;-81
2022/03/05 04:52:58;;;;;;;35.63;14.10;;;;;;;-1.68;79.00;101984.53;5020633;28;20165;-82
2022/03/05 04:55:23;;;;;;;38.72;15.35;;;;;;;-1.70;79.32;101987.69;5025837;28;20173;-81
2022/03/05 04:57:48;;;;;;;36.20;15.52;;;;;;;-1.71;79.06;101985.91;5032763;28;20282;-81
2022/03/05 05:00:15;;;;;;;35.50;15.32;;;;;;;-1.73;78.59;101990.88;5025192;28;20037;-81
2022/03/05 05:02:40;;;;;;;39.63;16.50;;;;;;;-1.77;79.45;101979.47;5022991;28;20022;-82
2022/03/05 05:05:06;;;;;;;35.50;14.77;;;;;;;-1.77;79.84;101983.66;5022351;28;20086;-83
2022/03/05 05:07:31;;;;;;;35.75;14.20;;;;;;;-1.78;79.51;101981.91;5028919;28;20014;-80
2022/03/05 05:09:57;;;;;;;35.03;14.27;;;;;;;-1.79;78.73;101980.97;5023008;28;20328;-82
2022/03/05 05:12:23;;;;;;;37.38;15.95;;;;;;;-1.84;78.65;101995.00;5027041;28;20260;-82
2022/03/05 05:14:48;;;;;;;36.47;15.57;;;;;;;-1.87;79.09;101981.03;5023415;28;20021;-82
2022/03/05 05:17:13;;;;;;;37.10;14.82;;;;;;;-1.87;78.85;101981.91;5022474;28;20252;-82
2022/03/05 05:19:39;;;;;;;36.45;14.35;;;;;;;-1.88;78.93;101990.38;5026950;28;20021;-82
2022/03/05 05:22:06;;;;;;;38.13;15.20;;;;;;;-1.87;79.19;101992.13;5029747;28;20160;-82
2022/03/05 05:24:33;;;;;;;33.55;14.75;;;;;;;-1.87;79.17;101994.69;5019714;28;20013;-82
2022/03/05 05:27:00;;;;;;;33.28;15.23;;;;;;;-1.86;79.87;101990.50;5025239;28;20021;-82
2022/03/05 05:29:26;;;;;;;39.63;17.17;;;;;;;-1.88;80.78;101992.91;5019754;28;20026;-82
2022/03/05 05:31:51;;;;;;;40.13;15.63;;;;;;;-1.89;80.90;101992.78;5025623;28;20026;-82
2022/03/05 05:34:18;;;;;;;39.08;14.98;;;;;;;-1.92;81.39;101996.84;5025274;28;20026;-82
2022/03/05 05:36:43;;;;;;;38.13;15.85;;;;;;;-1.92;81.69;101994.28;5024381;28;20034;-81
2022/03/05 05:39:11;;;;;;;39.55;15.95;;;;;;;-1.92;81.86;102004.50;5012302;28;20045;-82
2022/03/05 05:41:37;;;;;;;36.90;15.10;;;;;;;-1.94;81.38;102012.75;5027555;28;20256;-82
2022/03/05 05:44:08;;;;;;;36.97;15.32;;;;;;;-1.94;81.72;102020.44;5022840;28;20030;-82
2022/03/05 05:46:33;;;;;;;37.47;15.80;;;;;;;-1.95;81.75;102014.44;5024947;28;20037;-82
2022/03/05 05:48:59;;;;;;;34.70;14.98;;;;;;;-1.96;81.30;102016.84;5025745;28;20168;-81
2022/03/05 05:51:26;;;;;;;32.50;14.88;;;;;;;-1.99;81.48;102016.56;5028031;28;20034;-82
2022/03/05 05:53:52;;;;;;;37.08;15.30;;;;;;;-2.00;81.77;102017.31;5015490;28;20009;-81
2022/03/05 05:56:17;;;;;;;42.88;15.80;;;;;;;-2.01;81.99;102026.63;5027497;28;20360;-81
2022/03/05 05:58:43;;;;;;;35.85;15.15;;;;;;;-2.02;82.39;102017.16;5027402;28;20307;-82
2022/03/05 06:01:08;;;;;;;37.72;14.60;;;;;;;-2.02;82.02;102019.72;5024268;28;20037;-81
2022/03/05 06:03:33;;;;;;;36.72;15.35;;;;;;;-2.04;82.63;102018.69;5027290;28;20053;-81
2022/03/05 06:05:59;;;;;;;38.05;15.57;;;;;;;-2.04;81.64;102016.16;5031092;28;20160;-81
2022/03/05 06:08:25;;;;;;;38.65;15.27;;;;;;;-2.05;81.91;102022.00;5028199;28;20022;-82
2022/03/05 06:10:51;;;;;;;38.03;15.95;;;;;;;-2.07;81.52;102012.38;5026080;28;21466;-81
2022/03/05 06:13:17;;;;;;;38.75;15.18;;;;;;;-2.11;81.70;102014.66;5025740;28;20017;-81
2022/03/05 06:15:42;;;;;;;38.97;15.05;;;;;;;-2.12;81.05;102014.53;5029850;28;20280;-81
2022/03/05 06:18:08;;;;;;;36.83;15.35;;;;;;;-2.14;80.42;102006.72;5024316;28;20018;-81
2022/03/05 06:20:33;;;;;;;41.35;16.30;;;;;;;-2.15;80.94;102016.78;5028315;28;20054;-80
2022/03/05 06:22:58;;;;;;;41.17;15.50;;;;;;;-2.14;80.71;102018.59;5027274;28;20022;-80
2022/03/05 06:25:24;;;;;;;38.63;15.63;;;;;;;-2.16;80.18;102009.88;5025884;28;20015;-80
2022/03/05 06:27:49;;;;;;;38.70;15.13;;;;;;;-2.17;80.25;102019.19;5023385;28;20045;-80
2022/03/05 06:30:14;;;;;;;35.00;14.95;;;;;;;-2.18;80.23;102024.16;5026352;28;20044;-80
2022/03/05 06:32:40;;;;;;;38.65;15.77;;;;;;;-2.21;80.42;102023.88;5032105;28;20085;-80
2022/03/05 06:35:06;;;;;;;41.20;16.40;;;;;;;-2.22;80.25;102028.06;5029552;28;20181;-80
2022/03/05 06:37:32;;;;;;;43.40;17.20;;;;;;;-2.21;80.85;102032.44;5025303;28;20030;-80
2022/03/05 06:39:58;;;;;;;33.85;14.60;;;;;;;-2.22;80.36;102027.19;5028789;28;20088;-80
2022/03/05 06:42:23;;;;;;;40.72;17.10;;;;;;;-2.21;81.22;102027.31;5026612;28;20060;-82
2022/03/05 06:44:49;;;;;;;42.30;16.75;;;;;;;-2.19;80.86;102022.38;5025278;28;20033;-83
2022/03/05 06:47:15;;;;;;;37.20;16.55;;;;;;;-2.16;80.43;102022.66;5025223;28;20006;-83
2022/03/05 06:49:40;;;;;;;44.08;17.35;;;;;;;-2.13;80.38;102033.13;5028352;28;20032;-83
2022/03/05 06:52:06;;;;;;;44.72;18.25;;;;;;;-2.11;80.67;102029.97;5023509;28;20411;-83
2022/03/05 06:54:31;;;;;;;43.83;18.48;;;;;;;-2.05;80.28;102029.66;5025705;28;20026;-83
2022/03/05 06:56:57;;;;;;;44.17;18.55;;;;;;;-1.96;80.11;102030.50;5028365;28;20022;-83
2022/03/05 06:59:22;;;;;;;50.22;20.75;;;;;;;-1.85;80.66;102038.28;5022977;28;20264;-83
2022/03/05 07:01:47;;;;;;;47.15;19.42;;;;;;;-1.80;81.26;102035.38;5020482;28;20044;-83
2022/03/05 07:04:13;;;;;;;44.78;18.98;;;;;;;-1.71;81.46;102034.44;5023956;28;20267;-83
2022/03/05 07:06:38;;;;;;;43.63;18.98;;;;;;;-1.48;80.75;102040.00;5027795;28;20025;-83
2022/03/05 07:09:04;;;;;;;42.92;17.55;;;;;;;-1.22;79.02;102038.91;5029285;28;20167;-83
2022/03/05 07:11:30;;;;;;;42.67;17.38;;;;;;;-1.13;79.31;102050.00;5026744;28;20045;-83
2022/03/05 07:13:56;;;;;;;39.30;16.27;;;;;;;-1.07;79.58;102047.97;5018346;28;20053;-83
2022/03/05 07:16:21;;;;;;;42.40;17.25;;;;;;;-1.04;80.05;102052.47;5025261;28;20085;-83
2022/03/05 07:18:46;;;;;;;40.45;17.85;;;;;;;-0.93;79.79;102051.78;5028811;28;20021;-83
2022/03/05 07:21:12;;;;;;;40.67;17.40;;;;;;;-0.91;80.24;102052.81;5025836;28;20034;-83
2022/03/05 07:23:37;;;;;;;38.83;17.20;;;;;;;-0.88;80.08;102060.75;5023432;28;20026;-83
2022/03/05 07:26:03;;;;;;;43.10;17.17;;;;;;;-0.91;79.98;102057.91;5026076;28;20009;-83
2022/03/05 07:28:28;;;;;;;43.58;18.42;;;;;;;-0.96;79.90;102060.81;5022059;28;20029;-83
2022/03/05 07:30:55;;;;;;;43.03;17.83;;;;;;;-1.00;80.74;102061.31;5025957;28;20044;-83
2022/03/05 07:33:21;;;;;;;43.38;18.05;;;;;;;-0.98;80.93;102065.81;5027840;28;20088;-83
2022/03/05 07:35:46;;;;;;;43.45;17.63;;;;;;;-0.87;80.75;102059.06;5026879;28;20240;-83
2022/03/05 07:38:11;;;;;;;43.85;18.15;;;;;;;-0.63;80.55;102057.81;5027045;28;20050;-83
2022/03/05 07:40:37;;;;;;;39.65;16.85;;;;;;;-0.42;80.01;102057.88;5028678;28;20052;-83
2022/03/05 07:43:02;;;;;;;45.50;18.08;;;;;;;-0.42;79.62;102055.31;5022927;28;20029;-83
2022/03/05 07:45:27;;;;;;;42.85;18.20;;;;;;;-0.40;79.98;102053.81;5024892;28;20024;-83
2022/03/05 07:47:53;;;;;;;42.20;17.20;;;;;;;-0.23;79.74;102052.72;5023530;28;20240;-83
2022/03/05 07:50:18;;;;;;;43.13;17.95;;;;;;;-0.19;78.74;102053.13;5025262;28;20018;-83
2022/03/05 07:52:43;;;;;;;44.83;18.63;;;;;;;-0.20;78.95;102046.19;5023253;28;20226;-81
2022/03/05 07:55:09;;;;;;;44.03;18.25;;;;;;;-0.12;79.46;102051.06;5021608;28;20102;-82
2022/03/05 07:57:35;;;;;;;40.72;16.58;;;;;;;-0.01;79.60;102058.91;5023217;28;20020;-82
2022/03/05 08:00:01;;;;;;;44.45;18.20;;;;;;;0.10;78.76;102058.94;5023363;28;20211;-82
2022/03/05 08:02:26;;;;;;;46.38;17.70;;;;;;;0.21;78.90;102073.56;5015602;28;20045;-82
2022/03/05 08:04:51;;;;;;;43.95;17.83;;;;;;;0.44;78.18;102070.38;5023656;28;20252;-82
2022/03/05 08:07:16;;;;;;;44.42;17.65;;;;;;;0.69;77.21;102080.13;5031658;28;20009;-82
2022/03/05 08:09:43;;;;;;;41.80;17.55;;;;;;;1.04;76.41;102077.94;5021822;28;20029;-82
2022/03/05 08:12:10;;;;;;;46.38;17.67;;;;;;;1.32;75.20;102080.16;5023229;28;20085;-82
2022/03/05 08:14:37;;;;;;;42.75;16.52;;;;;;;1.78;73.85;102085.50;5022163;28;20049;-82
2022/03/05 08:17:02;;;;;;;38.80;15.90;;;;;;;1.84;72.96;102080.88;5028342;28;20018;-82
2022/03/05 08:19:27;;;;;;;41.55;16.80;;;;;;;1.65;73.20;102083.66;5028150;28;20147;-82
2022/03/05 08:21:53;;;;;;;44.25;17.27;;;;;;;1.42;73.72;102084.38;5027500;28;20084;-82
2022/03/05 08:24:18;;;;;;;40.85;17.02;;;;;;;1.21;74.08;102084.41;5028136;28;20072;-83
2022/03/05 08:26:43;;;;;;;45.83;17.95;;;;;;;1.03;75.70;102083.81;5022545;28;20184;-83
2022/03/05 08:29:09;;;;;;;42.50;17.92;;;;;;;0.91;76.62;102087.03;5020491;28;20268;-83
2022/03/05 08:31:34;;;;;;;39.50;17.23;;;;;;;0.85;76.38;102084.88;5021365;28;20256;-83
2022/03/05 08:34:01;;;;;;;43.97;17.45;;;;;;;0.80;76.52;102092.19;5023772;28;20025;-83
2022/03/05 08:36:28;;;;;;;43.40;18.88;;;;;;;0.79;77.24;102086.94;5026300;28;20317;-83
2022/03/05 08:38:54;;;;;;;43.05;17.75;;;;;;;0.81;77.49;102091.44;5015042;28;20125;-83
2022/03/05 08:41:19;;;;;;;47.50;18.23;;;;;;;0.85;77.62;102090.91;5031651;28;20019;-82
2022/03/05 08:43:44;;;;;;;50.38;19.45;;;;;;;0.86;76.69;102082.44;5030516;28;20032;-82
2022/03/05 08:46:10;;;;;;;47.30;18.23;;;;;;;0.92;76.45;102086.28;5018390;28;20070;-82
2022/03/05 08:48:35;;;;;;;49.80;18.90;;;;;;;0.95;77.37;102095.13;5028422;28;20168;-82
2022/03/05 08:51:01;;;;;;;47.22;19.10;;;;;;;1.02;77.06;102093.97;5025755;28;20049;-82
2022/03/05 08:53:26;;;;;;;46.97;19.33;;;;;;;1.07;76.46;102091.78;5024079;28;20019;-82
2022/03/05 08:55:52;;;;;;;42.97;18.02;;;;;;;1.12;76.71;102093.94;5025501;28;20075;-83
2022/03/05 08:58:18;;;;;;;46.38;18.55;;;;;;;1.15;75.83;102091.63;5025053;28;20045;-83
2022/03/05 09:00:43;;;;;;;47.60;18.60;;;;;;;1.18;75.67;102091.00;5025411;28;20275;-83
2022/03/05 09:03:09;;;;;;;43.50;19.02;;;;;;;1.25;75.46;102090.72;5024263;28;20101;-83
2022/03/05 09:05:34;;;;;;;48.05;18.30;;;;;;;1.31;75.53;102095.47;5031994;28;20026;-83
2022/03/05 09:07:59;;;;;;;48.58;18.67;;;;;;;1.38;75.92;102102.88;5023277;28;20018;-83
2022/03/05 09:10:25;;;;;;;43.63;18.85;;;;;;;1.43;75.78;102095.53;5035221;28;20180;-83
2022/03/05 09:12:50;;;;;;;48.03;18.23;;;;;;;1.49;75.26;102096.94;5032913;28;20048;-83
2022/03/05 09:15:16;;;;;;;48.10;18.77;;;;;;;1.56;75.49;102096.66;5032485;28;20112;-82
2022/03/05 09:17:42;;;;;;;47.95;18.98;;;;;;;1.67;74.87;102088.91;5027256;28;20022;-81
2022/03/05 09:20:08;;;;;;;53.67;21.77;;;;;;;1.72;75.28;102088.50;5026370;28;20271;-81
2022/03/05 09:22:33;;;;;;;51.90;21.48;;;;;;;1.77;74.67;102088.88;5033334;28;20236;-81
2022/03/05 09:24:59;;;;;;;46.75;19.58;;;;;;;1.84;74.74;102080.88;5026455;28;20017;-80
2022/03/05 09:27:24;;;;;;;56.85;22.08;;;;;;;1.92;74.84;102082.34;5023213;28;20349;-81
2022/03/05 09:29:49;;;;;;;59.63;25.02;;;;;;;1.99;73.36;102080.28;5021652;28;20256;-80
2022/03/05 09:32:15;;;;;;;53.35;24.55;;;;;;;2.06;73.55;102082.56;5014371;28;20009;-79
2022/03/05 09:34:40;;;;;;;50.17;20.95;;;;;;;2.14;73.50;102075.44;5029317;28;20154;-80
2022/03/05 09:37:05;;;;;;;50.03;21.00;;;;;;;2.24;73.83;102073.66;5025508;28;20093;-80
2022/03/05 09:39:31;;;;;;;55.92;20.90;;;;;;;2.36;73.96;102067.69;5016939;28;20225;-80
2022/03/05 09:41:56;;;;;;;52.40;21.30;;;;;;;2.46;72.97;102067.59;5013970;28;20024;-80
2022/03/05 09:44:22;;;;;;;57.00;24.10;;;;;;;2.57;73.22;102074.47;5031988;28;20208;-80
2022/03/05 09:46:47;;;;;;;49.20;21.13;;;;;;;2.66;72.02;102063.97;5028978;28;20037;-80
2022/03/05 09:49:14;;;;;;;57.47;23.27;;;;;;;2.75;73.17;102074.06;5024768;28;20017;-81
2022/03/05 09:51:40;;;;;;;56.97;21.73;;;;;;;2.82;72.06;102071.16;5029159;28;20260;-80
2022/03/05 09:54:05;;;;;;;50.60;20.70;;;;;;;2.91;71.48;102074.44;5019426;28;20029;-81
2022/03/05 09:56:30;;;;;;;51.33;21.27;;;;;;;2.98;71.02;102072.31;5018238;28;20026;-81
2022/03/05 09:58:56;;;;;;;57.65;22.23;;;;;;;3.06;70.68;102081.50;5019589;28;20150;-81
2022/03/05 10:01:22;;;;;;;50.67;21.27;;;;;;;3.14;70.27;102072.66;5013792;28;20018;-80
2022/03/05 10:03:50;;;;;;;57.53;22.98;;;;;;;3.24;70.72;102080.25;5017470;28;20029;-82
2022/03/05 10:06:20;;;;;;;53.33;22.90;;;;;;;3.36;71.03;102077.72;5025229;28;20017;-81
2022/03/05 10:08:47;;;;;;;106.03;48.65;;;;;;;3.45;70.50;102085.22;5025252;28;20017;-81
2022/03/05 10:11:14;;;;;;;54.92;22.77;;;;;;;3.54;70.24;102079.81;5020646;28;20014;-81
2022/03/05 10:13:42;;;;;;;56.80;22.63;;;;;;;3.60;68.71;102080.25;5022144;28;20061;-81
2022/03/05 10:16:29;;;;;;;55.97;22.48;;;;;;;3.67;69.68;102073.88;5029490;28;20025;-81
2022/03/05 10:18:56;;;;;;;87.30;39.22;;;;;;;3.74;68.96;102073.53;5012002;28;20191;-80
2022/03/05 10:21:31;;;;;;;103.50;44.75;;;;;;;3.83;69.24;102069.00;5018492;28;20052;-80
2022/03/05 10:24:08;;;;;;;64.82;25.13;;;;;;;3.95;68.30;102072.47;5034041;28;20029;-81
2022/03/05 10:26:54;;;;;;;59.50;23.27;;;;;;;4.08;67.26;102066.44;5019514;28;20016;-81
2022/03/05 10:29:24;;;;;;;61.72;23.95;;;;;;;4.16;66.92;102060.16;5022933;28;20029;-81
2022/03/05 10:31:58;;;;;;;61.83;23.77;;;;;;;4.24;66.26;102064.94;5019827;28;20056;-81
2022/03/05 10:34:23;;;;;;;66.50;25.02;;;;;;;4.32;65.80;102069.84;5030114;28;20052;-81
2022/03/05 10:37:00;;;;;;;60.03;23.92;;;;;;;4.41;65.62;102073.84;5024732;28;20024;-81
2022/03/05 10:39:26;;;;;;;61.92;24.08;;;;;;;4.51;65.69;102065.94;5030422;28;20088;-80
2022/03/05 10:41:52;;;;;;;62.38;24.52;;;;;;;4.60;65.04;102071.72;5026900;28;20155;-80
2022/03/05 10:44:19;;;;;;;62.83;25.85;;;;;;;4.66;64.60;102068.66;5020843;28;20200;-80
2022/03/05 10:46:56;;;;;;;76.25;27.90;;;;;;;4.75;66.31;102068.38;5011928;28;20048;-80
2022/03/05 10:49:25;;;;;;;69.32;28.13;;;;;;;4.84;65.90;102069.00;5010064;28;20014;-80
2022/03/05 10:52:00;;;;;;;68.25;26.92;;;;;;;4.96;64.47;102067.22;5025029;28;20249;-80
2022/03/05 10:54:39;;;;;;;73.25;26.30;;;;;;;5.05;63.68;102072.09;5019988;28;20056;-80
2022/03/05 10:57:16;;;;;;;87.70;37.50;;;;;;;5.16;64.66;102071.13;5019445;28;20068;-82
2022/03/05 10:59:43;;;;;;;75.78;28.90;;;;;;;5.27;62.80;102074.44;5025614;28;20025;-83
2022/03/05 11:02:11;;;;;;;80.32;30.35;;;;;;;5.35;62.15;102074.91;5031672;28;20145;-83
2022/03/05 11:04:37;;;;;;;68.72;26.48;;;;;;;5.41;62.47;102085.63;5032334;28;20043;-83
2022/03/05 11:07:04;;;;;;;78.47;28.88;;;;;;;5.50;61.91;102072.41;5028855;28;20324;-82
2022/03/05 11:09:31;;;;;;;80.53;29.02;;;;;;;5.57;61.91;102074.59;5021468;28;20149;-83